Time;durP1;ratioP1;P1;durP2;ratioP2;P2;SDS_P1;SDS_P2;PMS_P1;PMS_P2;Temp;Humidity;BMP_temperature;BMP_pressure;BME280_temperature;BME280_humidity;BME280_pressure;Samples;Min_cycle;Max_cycle;Signal;HPM_P1;HPM_P2
2023/11/01 00:02:47;;;;;;;1.92;1.05;;;14.00;66.10;;;;;;6050604;29;20036;-73
2023/11/01 00:05:48;;;;;;;2.70;1.33;;;14.00;65.90;;;;;;6049662;29;20041;-70
2023/11/01 00:08:49;;;;;;;2.75;1.55;;;14.10;65.80;;;;;;6048953;29;20037;-72
2023/11/01 00:11:50;;;;;;;3.60;1.52;;;14.00;65.60;;;;;;6049680;29;20507;-73
2023/11/01 00:14:51;;;;;;;5.90;1.65;;;14.00;65.50;;;;;;6049736;29;20801;-73
2023/11/01 00:17:53;;;;;;;4.00;1.23;;;14.00;65.50;;;;;;6049001;29;20040;-72
2023/11/01 00:20:53;;;;;;;2.17;1.08;;;14.00;65.30;;;;;;6047518;29;20077;-73
2023/11/01 00:23:54;;;;;;;2.63;1.17;;;13.90;65.20;;;;;;6049451;29;20435;-73
2023/11/01 00:26:55;;;;;;;1.90;1.10;;;13.90;65.20;;;;;;6048050;29;20051;-74
2023/11/01 00:29:57;;;;;;;2.30;1.55;;;13.90;65.10;;;;;;6048978;29;20143;-73
2023/11/01 00:32:58;;;;;;;2.05;1.40;;;13.90;65.20;;;;;;6056089;29;20375;-72
2023/11/01 00:35:58;;;;;;;1.52;1.00;;;13.90;65.10;;;;;;6024956;29;20041;-73
2023/11/01 00:38:59;;;;;;;2.13;1.45;;;13.90;65.20;;;;;;6025947;29;20542;-74
2023/11/01 00:42:00;;;;;;;3.78;1.83;;;13.80;65.10;;;;;;6027781;29;20119;-73
2023/11/01 00:45:02;;;;;;;4.32;1.95;;;13.80;65.10;;;;;;6047513;29;20591;-73
2023/11/01 00:48:03;;;;;;;5.65;2.17;;;13.80;65.20;;;;;;6047484;29;20796;-73
2023/11/01 00:51:05;;;;;;;4.93;2.83;;;13.80;65.20;;;;;;6047444;29;20122;-71
2023/11/01 00:54:06;;;;;;;4.00;2.38;;;13.80;65.30;;;;;;6048998;29;20033;-73
2023/11/01 00:57:06;;;;;;;6.45;2.70;;;13.80;65.50;;;;;;6047602;29;20029;-71
2023/11/01 01:00:08;;;;;;;3.65;2.30;;;13.80;65.70;;;;;;6047352;29;20438;-71
2023/11/01 01:03:10;;;;;;;9.90;2.38;;;13.80;65.80;;;;;;6047465;29;20044;-72
2023/11/01 01:06:11;;;;;;;4.55;2.38;;;13.80;65.80;;;;;;6047372;29;20025;-71
2023/11/01 01:09:12;;;;;;;5.60;2.67;;;13.80;65.80;;;;;;6047381;29;20065;-72
2023/11/01 01:12:13;;;;;;;5.57;2.63;;;13.80;65.90;;;;;;6048466;29;20040;-73
2023/11/01 01:15:14;;;;;;;9.43;2.80;;;13.80;66.00;;;;;;6061976;29;20029;-73
2023/11/01 01:18:14;;;;;;;8.57;2.83;;;13.70;66.00;;;;;;6049880;29;20030;-71
2023/11/01 01:21:15;;;;;;;7.60;2.63;;;13.70;66.10;;;;;;6034249;29;20143;-72
2023/11/01 01:24:16;;;;;;;5.85;2.75;;;13.60;66.30;;;;;;6027537;29;20454;-72
2023/11/01 01:27:18;;;;;;;6.05;3.47;;;13.50;66.50;;;;;;6063053;29;20052;-71
2023/11/01 01:30:19;;;;;;;4.18;2.65;;;13.60;66.60;;;;;;6052874;29;20036;-72
2023/11/01 01:33:20;;;;;;;7.90;2.55;;;13.50;66.70;;;;;;6053601;29;20128;-73
2023/11/01 01:36:21;;;;;;;5.68;2.67;;;13.50;66.70;;;;;;6051818;29;20040;-73
2023/11/01 01:39:22;;;;;;;6.32;1.80;;;13.50;66.70;;;;;;6051601;29;20116;-75
2023/11/01 01:43:26;;;;;;;6.38;2.55;;;13.50;66.70;;;;;;6067107;29;20029;-71
2023/11/01 01:46:29;;;;;;;9.88;2.80;;;13.50;66.70;;;;;;6052945;29;20037;-71
2023/11/01 01:49:30;;;;;;;5.45;2.85;;;13.40;66.80;;;;;;6053259;29;20036;-73
2023/11/01 01:52:31;;;;;;;3.95;2.28;;;13.30;66.90;;;;;;6053017;29;20469;-73
2023/11/01 01:55:32;;;;;;;5.07;2.47;;;13.20;67.00;;;;;;6053267;29;20029;-73
2023/11/01 01:58:37;;;;;;;5.45;2.80;;;13.30;67.10;;;;;;6067080;29;20113;-73
2023/11/01 02:01:39;;;;;;;3.03;2.25;;;13.20;67.20;;;;;;6051261;29;20439;-73
2023/11/01 02:04:40;;;;;;;5.97;2.47;;;13.10;67.40;;;;;;6051163;29;20033;-72
2023/11/01 02:07:41;;;;;;;5.32;2.78;;;13.10;67.70;;;;;;6051195;29;20044;-72
2023/11/01 02:10:42;;;;;;;3.50;2.33;;;13.00;67.80;;;;;;6050401;29;20029;-72
2023/11/01 02:13:43;;;;;;;8.35;3.00;;;13.00;68.00;;;;;;6035143;29;20029;-73
2023/11/01 02:16:44;;;;;;;4.10;2.60;;;13.00;68.00;;;;;;6051207;29;20029;-71
2023/11/01 02:19:45;;;;;;;4.13;2.22;;;13.00;68.10;;;;;;6047814;29;20478;-73
2023/11/01 02:22:46;;;;;;;14.07;2.55;;;12.90;68.20;;;;;;6048581;29;20033;-73
2023/11/01 02:25:46;;;;;;;4.70;2.33;;;12.90;68.20;;;;;;6051373;29;20036;-71
2023/11/01 02:28:47;;;;;;;5.15;2.35;;;12.90;68.20;;;;;;6027545;29;20226;-72
2023/11/01 02:31:50;;;;;;;5.78;2.25;;;12.90;68.10;;;;;;6028923;29;20112;-74
2023/11/01 02:34:51;;;;;;;3.78;2.30;;;12.90;68.00;;;;;;6030470;29;20034;-73
2023/11/01 02:37:51;;;;;;;7.75;2.80;;;12.90;68.10;;;;;;6050371;29;20059;-74
2023/11/01 02:40:52;;;;;;;5.30;2.65;;;12.90;68.00;;;;;;6049307;29;20534;-75
2023/11/01 02:43:53;;;;;;;5.75;2.55;;;12.80;67.90;;;;;;6049842;29;20048;-72
2023/11/01 02:46:54;;;;;;;3.92;2.60;;;12.80;67.90;;;;;;6050533;29;20148;-73
2023/11/01 02:49:55;;;;;;;5.75;3.10;;;12.70;68.10;;;;;;6051274;29;20025;-73
2023/11/01 02:52:55;;;;;;;4.65;2.53;;;12.70;68.10;;;;;;6050236;29;20490;-73
2023/11/01 02:55:56;;;;;;;5.68;2.65;;;12.70;68.00;;;;;;6051388;29;20036;-73
2023/11/01 02:58:57;;;;;;;8.02;2.75;;;12.60;67.90;;;;;;6050071;29;20036;-74
2023/11/01 03:01:58;;;;;;;7.00;3.92;;;12.60;67.80;;;;;;6051148;29;20431;-72
2023/11/01 03:05:00;;;;;;;7.07;3.33;;;12.60;67.80;;;;;;6059530;29;20072;-71
2023/11/01 03:08:00;;;;;;;4.15;2.30;;;12.50;67.90;;;;;;6061743;29;20160;-71
2023/11/01 03:11:01;;;;;;;4.32;2.42;;;12.50;68.10;;;;;;6050066;29;20480;-72
2023/11/01 03:14:02;;;;;;;7.82;2.65;;;12.50;68.10;;;;;;6051530;29;20465;-75
2023/11/01 03:17:03;;;;;;;8.27;2.17;;;12.40;68.10;;;;;;6050600;29;20511;-73
2023/11/01 03:20:06;;;;;;;5.63;2.40;;;12.30;68.20;;;;;;6045542;29;20037;-74
2023/11/01 03:23:06;;;;;;;5.85;2.33;;;12.30;68.30;;;;;;6026447;29;20112;-72
2023/11/01 03:26:08;;;;;;;2.63;1.83;;;12.30;68.40;;;;;;6029531;29;20061;-73
2023/11/01 03:29:09;;;;;;;9.18;2.53;;;12.20;68.50;;;;;;6050861;29;20157;-71
2023/11/01 03:32:10;;;;;;;5.75;2.65;;;12.30;68.40;;;;;;6051183;29;20120;-73
2023/11/01 03:35:11;;;;;;;4.15;2.50;;;12.20;68.40;;;;;;6065064;29;20060;-71
2023/11/01 03:38:12;;;;;;;4.32;2.22;;;12.20;68.40;;;;;;6050561;29;20098;-75
2023/11/01 03:41:13;;;;;;;3.55;2.35;;;12.20;68.50;;;;;;6048910;29;20037;-73
2023/11/01 03:44:14;;;;;;;6.50;2.63;;;12.10;68.60;;;;;;6031493;29;20079;-72
2023/11/01 03:47:15;;;;;;;4.60;2.22;;;12.20;68.80;;;;;;6041470;29;20042;-73
2023/11/01 03:50:16;;;;;;;4.65;2.03;;;12.20;68.70;;;;;;6027176;29;20041;-72
2023/11/01 03:53:17;;;;;;;8.68;2.42;;;12.20;68.70;;;;;;6025069;29;20467;-72
2023/11/01 03:56:18;;;;;;;5.05;2.65;;;12.20;68.70;;;;;;6027351;29;20022;-74
2023/11/01 03:59:19;;;;;;;2.40;2.17;;;12.20;68.60;;;;;;6027004;29;20053;-73
2023/11/01 04:02:20;;;;;;;5.25;2.08;;;12.20;68.60;;;;;;6032729;29;20116;-74
2023/11/01 04:05:21;;;;;;;4.18;2.28;;;12.20;68.50;;;;;;6071389;29;20076;-73
2023/11/01 04:08:22;;;;;;;5.55;2.50;;;12.20;68.30;;;;;;6070799;29;20028;-73
2023/11/01 04:11:23;;;;;;;4.13;2.05;;;12.20;68.30;;;;;;6049730;29;20032;-73
2023/11/01 04:14:24;;;;;;;3.58;2.00;;;12.20;68.20;;;;;;6047949;29;20033;-74
2023/11/01 04:17:25;;;;;;;3.17;1.83;;;12.20;68.10;;;;;;6048118;29;20044;-71
2023/11/01 04:20:25;;;;;;;5.82;2.75;;;12.10;68.10;;;;;;6049210;29;20033;-73
2023/11/01 04:23:39;;;;;;;4.07;2.10;;;12.10;68.50;;;;;;6063896;29;20119;-73
2023/11/01 04:26:39;;;;;;;3.95;2.40;;;12.10;68.70;;;;;;6042054;29;20033;-74
2023/11/01 04:29:40;;;;;;;4.32;2.25;;;12.10;68.70;;;;;;6026460;29;20116;-72
2023/11/01 04:32:43;;;;;;;3.47;2.00;;;12.10;68.80;;;;;;6046794;29;20029;-73
2023/11/01 04:35:44;;;;;;;4.47;2.40;;;12.00;68.80;;;;;;6049600;29;20032;-72
2023/11/01 04:38:47;;;;;;;5.35;2.00;;;12.10;68.80;;;;;;6050100;29;20036;-75
2023/11/01 04:41:47;;;;;;;2.50;1.70;;;12.20;68.80;;;;;;6049738;29;20044;-72
2023/11/01 04:44:48;;;;;;;4.10;1.85;;;12.20;68.70;;;;;;6049404;29;20131;-73
2023/11/01 04:47:49;;;;;;;2.60;1.60;;;12.20;68.70;;;;;;6032242;29;20435;-73
2023/11/01 04:50:50;;;;;;;2.60;1.40;;;12.30;68.60;;;;;;6050084;29;20041;-73
2023/11/01 04:53:51;;;;;;;8.18;2.25;;;12.40;68.60;;;;;;6054534;29;20043;-72
2023/11/01 04:56:52;;;;;;;3.53;2.03;;;12.30;68.40;;;;;;6058943;29;20081;-72
2023/11/01 04:59:52;;;;;;;2.92;1.80;;;12.40;68.50;;;;;;6064404;29;20533;-73
2023/11/01 05:02:53;;;;;;;3.88;1.88;;;12.20;68.20;;;;;;6063745;29;20060;-72
2023/11/01 05:05:54;;;;;;;5.90;1.67;;;12.40;68.20;;;;;;6053890;29;20032;-74
2023/11/01 05:08:55;;;;;;;2.80;1.80;;;12.40;68.10;;;;;;6053592;29;20665;-73
2023/11/01 05:11:56;;;;;;;3.58;1.90;;;12.50;68.10;;;;;;6052406;29;20029;-72
2023/11/01 05:14:57;;;;;;;12.10;1.90;;;12.50;68.00;;;;;;6053678;29;20100;-72
2023/11/01 05:17:58;;;;;;;2.58;1.42;;;12.50;68.00;;;;;;6053607;29;20044;-72
2023/11/01 05:21:00;;;;;;;9.50;1.70;;;12.60;67.90;;;;;;6040782;29;20037;-72
2023/11/01 05:24:01;;;;;;;3.25;1.42;;;12.60;67.80;;;;;;6030679;29;20061;-72
2023/11/01 05:27:01;;;;;;;3.08;1.85;;;12.60;67.80;;;;;;6039046;29;20552;-72
2023/11/01 05:30:03;;;;;;;3.42;1.40;;;12.60;67.70;;;;;;6053510;29;20125;-72
2023/11/01 05:33:03;;;;;;;5.75;2.22;;;12.60;67.50;;;;;;6028852;29;20092;-72
2023/11/01 05:36:06;;;;;;;2.58;1.55;;;12.60;67.40;;;;;;6028838;29;20061;-72
2023/11/01 05:39:08;;;;;;;4.22;2.20;;;12.60;67.40;;;;;;6030021;29;20029;-72
2023/11/01 05:42:09;;;;;;;3.78;2.20;;;12.50;67.40;;;;;;6033134;29;20126;-72
2023/11/01 05:45:17;;;;;;;2.10;1.63;;;12.50;67.40;;;;;;6053809;29;20041;-71
2023/11/01 05:48:18;;;;;;;4.18;2.17;;;12.40;67.50;;;;;;6053625;29;20807;-72
2023/11/01 05:51:19;;;;;;;5.97;2.13;;;12.40;67.60;;;;;;6051987;29;20149;-73
2023/11/01 05:54:20;;;;;;;11.93;2.10;;;12.40;67.60;;;;;;6053510;29;20540;-72
2023/11/01 05:57:20;;;;;;;7.25;1.73;;;12.40;67.70;;;;;;6067235;29;20056;-73
2023/11/01 06:00:22;;;;;;;2.20;1.50;;;12.30;67.70;;;;;;6052873;29;20118;-72
2023/11/01 06:03:25;;;;;;;3.10;1.67;;;12.30;67.80;;;;;;6052787;29;20033;-72
2023/11/01 06:06:26;;;;;;;2.15;1.35;;;12.30;67.90;;;;;;6050931;29;20120;-71
2023/11/01 06:09:27;;;;;;;6.50;2.30;;;12.30;68.00;;;;;;6052233;29;20498;-72
2023/11/01 06:12:28;;;;;;;2.70;1.95;;;12.30;68.00;;;;;;6052868;29;20549;-73
2023/11/01 06:15:28;;;;;;;4.97;1.90;;;12.30;68.00;;;;;;6052245;29;20033;-73
2023/11/01 06:18:48;;;;;;;3.75;1.85;;;12.30;67.90;;;;;;6052276;29;20037;-73
2023/11/01 06:21:49;;;;;;;2.90;1.85;;;12.30;68.00;;;;;;6052107;29;20033;-72
2023/11/01 06:24:50;;;;;;;8.65;1.88;;;12.20;68.00;;;;;;6052136;29;20407;-73
2023/11/01 06:27:50;;;;;;;7.72;2.25;;;12.30;68.20;;;;;;6035579;29;20045;-72
2023/11/01 06:30:51;;;;;;;4.05;2.15;;;12.20;68.20;;;;;;6018309;29;20347;-73
2023/11/01 06:33:52;;;;;;;3.13;1.50;;;12.30;68.30;;;;;;6052216;29;20086;-72
2023/11/01 06:36:53;;;;;;;2.95;1.70;;;12.20;68.20;;;;;;6051098;29;20207;-71
2023/11/01 06:39:54;;;;;;;5.35;2.45;;;12.20;68.20;;;;;;6050917;29;20048;-73
2023/11/01 06:42:55;;;;;;;2.78;2.05;;;12.20;68.30;;;;;;6044329;29;20162;-72
2023/11/01 06:45:56;;;;;;;3.00;1.83;;;12.20;68.30;;;;;;6029469;29;20049;-72
2023/11/01 06:48:57;;;;;;;4.93;1.77;;;12.20;68.30;;;;;;6038002;29;20496;-70
2023/11/01 06:51:58;;;;;;;3.50;1.95;;;12.20;68.20;;;;;;6036959;29;20037;-72
2023/11/01 06:55:00;;;;;;;5.18;1.85;;;12.20;68.20;;;;;;6027500;29;20037;-73
2023/11/01 06:58:01;;;;;;;4.57;2.20;;;12.30;68.20;;;;;;6042255;29;20042;-74
2023/11/01 07:01:02;;;;;;;5.05;2.22;;;12.30;68.10;;;;;;6028576;29;20037;-72
2023/11/01 07:04:03;;;;;;;2.70;1.70;;;12.40;68.00;;;;;;6047923;29;20088;-72
2023/11/01 07:07:04;;;;;;;2.95;1.83;;;12.40;67.90;;;;;;6049732;29;20140;-73
2023/11/01 07:10:07;;;;;;;4.60;2.22;;;12.40;67.80;;;;;;6049535;29;20025;-73
2023/11/01 07:13:08;;;;;;;2.83;1.60;;;12.40;67.60;;;;;;6051115;29;20093;-72
2023/11/01 07:16:08;;;;;;;1.75;1.20;;;12.40;67.40;;;;;;6051400;29;20033;-73
2023/11/01 07:19:09;;;;;;;2.17;1.23;;;12.40;67.40;;;;;;6050928;29;20036;-73
2023/11/01 07:22:11;;;;;;;3.50;1.67;;;12.50;67.40;;;;;;6012469;29;20033;-73
2023/11/01 07:25:11;;;;;;;2.38;1.80;;;12.40;67.00;;;;;;6026463;29;20041;-72
2023/11/01 07:28:12;;;;;;;6.50;3.10;;;12.40;66.90;;;;;;6046551;29;20096;-73
2023/11/01 07:31:14;;;;;;;4.57;2.13;;;12.30;67.00;;;;;;6049540;29;20059;-71
2023/11/01 07:34:15;;;;;;;3.38;2.30;;;12.30;67.10;;;;;;6050899;29;20052;-73
2023/11/01 07:37:16;;;;;;;4.13;1.90;;;12.30;67.00;;;;;;6050725;29;20029;-72
2023/11/01 07:40:17;;;;;;;3.05;1.70;;;12.30;67.10;;;;;;6049040;29;20427;-74
2023/11/01 07:43:17;;;;;;;3.13;1.92;;;12.20;67.10;;;;;;6048792;29;20521;-73
2023/11/01 07:46:18;;;;;;;3.65;1.58;;;12.20;67.10;;;;;;6050632;29;20041;-74
2023/11/01 07:49:19;;;;;;;2.65;1.85;;;12.30;67.30;;;;;;6050351;29;20044;-73
2023/11/01 07:52:20;;;;;;;3.53;1.60;;;12.20;67.30;;;;;;6049844;29;20036;-74
2023/11/01 07:55:21;;;;;;;2.80;1.70;;;12.30;67.30;;;;;;6033057;29;20554;-73
2023/11/01 07:58:22;;;;;;;2.60;1.48;;;12.40;67.40;;;;;;6031874;29;20025;-72
2023/11/01 08:01:22;;;;;;;5.03;1.65;;;12.40;67.20;;;;;;6048861;29;20072;-74
2023/11/01 08:04:23;;;;;;;5.20;1.95;;;12.50;67.10;;;;;;6050205;29;20116;-73
2023/11/01 08:07:25;;;;;;;2.78;1.45;;;12.60;66.70;;;;;;6048319;29;20052;-73
2023/11/01 08:10:26;;;;;;;3.92;2.10;;;12.60;66.60;;;;;;6047950;29;20514;-73
2023/11/01 08:13:27;;;;;;;5.60;2.75;;;12.60;66.50;;;;;;6025864;29;20052;-72
2023/11/01 08:16:28;;;;;;;4.53;2.15;;;12.60;66.00;;;;;;6027169;29;20751;-73
2023/11/01 08:19:29;;;;;;;4.47;2.40;;;12.50;65.90;;;;;;6025099;29;20132;-72
2023/11/01 08:22:29;;;;;;;1.75;1.58;;;12.40;66.20;;;;;;6025077;29;20040;-74
2023/11/01 08:25:30;;;;;;;6.03;2.60;;;12.40;66.50;;;;;;6026907;29;20264;-74
2023/11/01 08:28:31;;;;;;;3.92;2.42;;;12.40;66.40;;;;;;6048305;29;20519;-73
2023/11/01 08:31:32;;;;;;;9.18;2.50;;;12.30;66.40;;;;;;6038720;29;20044;-73
2023/11/01 08:34:33;;;;;;;7.25;1.80;;;12.40;66.80;;;;;;6027265;29;20022;-73
2023/11/01 08:37:34;;;;;;;6.40;2.88;;;12.50;66.80;;;;;;6026416;29;20443;-73
2023/11/01 08:40:35;;;;;;;5.82;1.98;;;12.50;66.30;;;;;;6021633;29;20041;-73
2023/11/01 08:43:36;;;;;;;5.10;2.78;;;12.60;66.40;;;;;;6046366;29;20059;-74
2023/11/01 08:46:37;;;;;;;1.70;1.48;;;12.60;66.20;;;;;;6063884;29;20085;-73
2023/11/01 08:49:38;;;;;;;3.45;2.00;;;12.70;66.20;;;;;;6047273;29;20036;-74
2023/11/01 08:52:42;;;;;;;2.67;1.65;;;12.90;65.70;;;;;;6049509;29;20029;-74
2023/11/01 08:55:43;;;;;;;2.80;1.42;;;12.90;65.50;;;;;;6050080;29;20033;-74
2023/11/01 08:58:44;;;;;;;2.28;1.58;;;13.00;65.00;;;;;;6049571;29;20060;-72
2023/11/01 09:01:45;;;;;;;2.50;1.23;;;13.10;65.10;;;;;;6048432;29;20164;-74
2023/11/01 09:04:46;;;;;;;1.88;1.20;;;13.30;64.80;;;;;;6048286;29;20115;-73
2023/11/01 09:07:47;;;;;;;1.15;0.77;;;13.50;64.20;;;;;;6063733;29;20644;-74
2023/11/01 09:10:48;;;;;;;6.15;2.80;;;13.60;63.80;;;;;;6049399;29;20017;-74
2023/11/01 09:13:49;;;;;;;1.98;1.17;;;13.70;63.20;;;;;;6063989;29;20044;-73
2023/11/01 09:16:50;;;;;;;1.42;1.20;;;13.90;63.30;;;;;;6048243;29;20033;-72
2023/11/01 09:19:51;;;;;;;4.22;1.60;;;14.00;63.10;;;;;;6043887;29;20406;-72
2023/11/01 09:22:53;;;;;;;6.43;1.42;;;14.10;62.70;;;;;;6025984;29;20124;-73
2023/11/01 09:25:54;;;;;;;3.25;1.60;;;14.30;62.40;;;;;;6026351;29;20600;-72
2023/11/01 09:28:55;;;;;;;2.33;1.70;;;14.30;62.30;;;;;;6049342;29;20800;-72
2023/11/01 09:31:56;;;;;;;2.75;1.40;;;14.40;62.10;;;;;;6033259;29;20038;-74
2023/11/01 09:34:57;;;;;;;4.97;1.88;;;14.50;61.90;;;;;;6025742;29;20041;-71
2023/11/01 09:37:58;;;;;;;5.80;1.63;;;14.60;61.70;;;;;;6024105;29;20052;-73
2023/11/01 09:41:05;;;;;;;2.65;1.10;;;14.60;61.30;;;;;;6025584;29;20026;-72
2023/11/01 09:44:09;;;;;;;3.03;1.50;;;14.70;61.10;;;;;;6042097;29;20113;-74
2023/11/01 09:47:13;;;;;;;4.30;2.10;;;14.80;60.70;;;;;;6035099;29;20049;-74
2023/11/01 09:50:16;;;;;;;5.10;2.33;;;14.90;60.60;;;;;;6027764;29;20037;-73
2023/11/01 09:53:17;;;;;;;10.05;1.45;;;15.00;60.20;;;;;;6053110;29;20084;-72
2023/11/01 09:56:21;;;;;;;5.25;1.77;;;15.10;59.30;;;;;;6053231;29;20324;-72
2023/11/01 09:59:22;;;;;;;3.67;2.03;;;15.20;59.40;;;;;;6050914;29;20205;-74
2023/11/01 10:02:23;;;;;;;5.30;1.38;;;15.20;59.40;;;;;;6051361;29;20044;-74
2023/11/01 10:05:24;;;;;;;3.00;1.30;;;15.20;59.00;;;;;;6066492;29;20152;-73
2023/11/01 10:08:45;;;;;;;3.70;1.45;;;15.20;58.90;;;;;;6051759;29;20052;-71
2023/11/01 10:11:47;;;;;;;4.32;2.20;;;15.20;58.90;;;;;;6048153;29;20112;-72
2023/11/01 10:14:48;;;;;;;7.82;2.75;;;15.10;59.30;;;;;;6035936;29;20036;-72
2023/11/01 10:17:51;;;;;;;3.42;1.80;;;15.10;59.40;;;;;;6052760;29;20142;-76
2023/11/01 10:20:52;;;;;;;5.70;2.08;;;15.10;59.40;;;;;;6051045;29;20072;-75
2023/11/01 10:23:57;;;;;;;4.07;1.98;;;15.20;59.40;;;;;;6046907;29;20097;-72
2023/11/01 10:26:58;;;;;;;7.20;2.05;;;15.30;59.50;;;;;;6048098;29;20177;-72
2023/11/01 10:30:02;;;;;;;4.60;1.75;;;15.50;59.30;;;;;;6046024;29;20385;-72
2023/11/01 10:33:03;;;;;;;2.05;1.40;;;15.60;59.20;;;;;;6040798;29;20029;-72
2023/11/01 10:36:04;;;;;;;8.82;1.65;;;15.80;58.90;;;;;;6035793;29;20150;-73
2023/11/01 10:39:07;;;;;;;8.88;1.85;;;15.90;58.60;;;;;;6012265;29;20037;-72
2023/11/01 10:42:09;;;;;;;2.33;1.70;;;15.90;58.50;;;;;;6047460;29;20066;-72
2023/11/01 10:45:10;;;;;;;5.35;1.80;;;16.00;58.40;;;;;;6028727;29;20045;-74
2023/11/01 10:48:11;;;;;;;2.65;1.90;;;16.10;58.20;;;;;;6042812;29;20069;-73
2023/11/01 10:51:13;;;;;;;2.75;1.52;;;16.20;58.00;;;;;;6051683;29;20037;-74
2023/11/01 10:54:14;;;;;;;4.85;1.83;;;16.20;57.70;;;;;;6051973;29;20025;-75
2023/11/01 10:57:15;;;;;;;3.03;1.40;;;16.30;58.00;;;;;;6050419;29;20332;-73
2023/11/01 11:00:37;;;;;;;3.40;1.38;;;16.30;57.90;;;;;;6051900;29;20033;-73
2023/11/01 11:03:49;;;;;;;4.50;1.80;;;16.50;57.90;;;;;;6050254;29;20037;-73
2023/11/01 11:07:08;;;;;;;2.58;1.45;;;16.60;57.40;;;;;;6049934;29;20123;-72
2023/11/01 11:10:24;;;;;;;3.08;1.60;;;16.70;57.10;;;;;;6051119;29;20041;-75
2023/11/01 11:13:25;;;;;;;15.68;2.53;;;16.80;56.70;;;;;;6026545;29;20061;-72
2023/11/01 11:16:49;;;;;;;9.35;3.10;;;16.80;56.30;;;;;;6028279;29;20025;-73
2023/11/01 11:20:05;;;;;;;11.82;3.30;;;16.70;56.30;;;;;;6030973;29;20040;-73
2023/11/01 11:23:14;;;;;;;1.90;1.27;;;16.80;56.70;;;;;;6051007;29;20052;-74
2023/11/01 11:26:38;;;;;;;15.07;2.08;;;16.80;56.40;;;;;;6065194;29;20128;-73
2023/11/01 11:29:45;;;;;;;13.20;4.40;;;16.90;56.20;;;;;;6065141;29;20048;-73
2023/11/01 11:32:47;;;;;;;4.95;2.40;;;16.70;55.90;;;;;;6049602;29;20064;-73
2023/11/01 11:36:20;;;;;;;7.00;2.90;;;16.70;56.20;;;;;;6051321;29;20029;-72
2023/11/01 11:39:21;;;;;;;3.58;1.48;;;16.70;55.50;;;;;;5978418;29;20500;-73
2023/11/01 11:42:44;;;;;;;4.85;2.65;;;16.80;54.70;;;;;;5963660;29;20048;-73
2023/11/01 11:45:45;;;;;;;21.70;6.40;;;16.90;54.70;;;;;;5956262;29;20141;-73
2023/11/01 11:48:49;;;;;;;10.55;3.20;;;16.90;54.80;;;;;;5955975;29;20122;-74
2023/11/01 11:51:52;;;;;;;13.90;2.17;;;17.00;55.00;;;;;;5956193;29;20043;-73
2023/11/01 11:54:53;;;;;;;8.85;3.63;;;17.00;55.10;;;;;;5955691;29;20030;-73
2023/11/01 11:57:54;;;;;;;11.60;3.17;;;17.10;55.60;;;;;;5955675;29;20054;-75
2023/11/01 12:00:55;;;;;;;7.55;3.10;;;17.10;54.90;;;;;;5955568;29;20500;-73
2023/11/01 12:03:58;;;;;;;4.18;1.73;;;17.10;54.90;;;;;;5956132;29;20047;-74
2023/11/01 12:06:59;;;;;;;15.80;2.78;;;17.10;54.50;;;;;;5956879;29;20546;-72
2023/11/01 12:10:00;;;;;;;5.90;1.88;;;17.00;54.60;;;;;;5957827;29;20042;-74
2023/11/01 12:13:01;;;;;;;5.57;2.30;;;17.00;54.80;;;;;;5977066;29;20042;-74
2023/11/01 12:16:02;;;;;;;9.77;3.90;;;16.90;55.10;;;;;;6024324;29;20393;-73
2023/11/01 12:19:12;;;;;;;3.85;1.77;;;16.90;55.30;;;;;;6066537;29;20178;-75
2023/11/01 12:22:14;;;;;;;4.40;2.03;;;16.90;55.40;;;;;;6035538;29;20033;-73
2023/11/01 12:25:23;;;;;;;4.38;1.65;;;16.90;55.20;;;;;;6061261;29;20100;-72
2023/11/01 12:28:24;;;;;;;1.70;1.42;;;17.00;55.10;;;;;;6051930;29;20055;-72
2023/11/01 12:31:25;;;;;;;2.90;0.85;;;17.10;54.30;;;;;;6050378;29;20761;-72
2023/11/01 12:34:25;;;;;;;15.57;1.30;;;17.30;53.20;;;;;;6050252;29;20029;-73
2023/11/01 12:37:29;;;;;;;1.80;0.65;;;17.60;52.60;;;;;;6050460;29;20037;-72
2023/11/01 12:40:30;;;;;;;5.45;0.80;;;17.90;51.80;;;;;;6049881;29;20089;-74
2023/11/01 12:43:36;;;;;;;1.85;0.65;;;18.20;51.30;;;;;;6063743;29;20044;-71
2023/11/01 12:46:37;;;;;;;1.10;0.75;;;18.50;50.70;;;;;;6049818;29;20028;-74
2023/11/01 12:49:41;;;;;;;1.30;0.45;;;18.70;50.00;;;;;;6050197;29;20036;-71
2023/11/01 12:52:42;;;;;;;6.80;0.90;;;18.90;49.20;;;;;;6051978;29;20172;-72
2023/11/01 12:55:43;;;;;;;1.17;0.40;;;19.20;47.80;;;;;;6051755;29;20029;-73
2023/11/01 12:58:44;;;;;;;2.15;0.88;;;19.50;47.30;;;;;;6052535;29;20493;-73
2023/11/01 13:01:45;;;;;;;2.83;0.63;;;19.70;46.90;;;;;;6052693;29;20534;-74
2023/11/01 13:04:46;;;;;;;0.75;0.30;;;19.80;45.90;;;;;;6065714;29;20116;-71
2023/11/01 13:07:47;;;;;;;3.03;0.75;;;19.90;45.50;;;;;;6065952;29;20044;-74
2023/11/01 13:10:47;;;;;;;2.72;0.50;;;20.00;45.70;;;;;;6050835;29;20402;-73
2023/11/01 13:13:48;;;;;;;1.63;0.80;;;20.00;45.30;;;;;;6049969;29;20078;-73
2023/11/01 13:16:50;;;;;;;1.67;0.80;;;20.10;45.60;;;;;;6067051;29;20466;-73
2023/11/01 13:19:51;;;;;;;1.90;0.50;;;20.00;46.00;;;;;;6046502;29;20037;-74
2023/11/01 13:22:52;;;;;;;1.48;0.95;;;20.00;46.30;;;;;;6028313;29;20379;-72
2023/11/01 13:25:53;;;;;;;2.42;0.70;;;20.00;45.80;;;;;;6030297;29;20037;-74
2023/11/01 13:28:54;;;;;;;0.57;0.50;;;20.10;46.10;;;;;;6031272;29;20089;-72
2023/11/01 13:31:55;;;;;;;0.60;0.40;;;20.00;45.90;;;;;;6032026;29;20055;-73
2023/11/01 13:34:55;;;;;;;3.53;0.68;;;20.00;46.00;;;;;;6037317;29;20033;-74
2023/11/01 13:37:56;;;;;;;2.58;0.65;;;20.00;45.80;;;;;;6056218;29;20058;-75
2023/11/01 13:40:57;;;;;;;0.50;0.30;;;19.90;45.70;;;;;;6054380;29;20037;-74
2023/11/01 13:43:58;;;;;;;2.38;0.70;;;19.90;45.50;;;;;;6055202;29;20077;-71
2023/11/01 13:46:59;;;;;;;3.28;0.80;;;19.90;45.80;;;;;;6055338;29;20059;-72
2023/11/01 13:50:00;;;;;;;0.68;0.57;;;19.90;46.40;;;;;;6054042;29;20037;-72
2023/11/01 13:53:00;;;;;;;5.63;0.52;;;19.80;46.50;;;;;;6053895;29;20111;-72
2023/11/01 13:56:03;;;;;;;8.52;1.02;;;19.70;46.70;;;;;;6052340;29;20112;-73
2023/11/01 13:59:04;;;;;;;2.42;0.75;;;19.70;47.00;;;;;;6052252;29;20033;-70
2023/11/01 14:02:05;;;;;;;4.50;0.55;;;19.60;47.20;;;;;;6053869;29;20087;-72
2023/11/01 14:05:06;;;;;;;1.20;0.60;;;19.50;47.50;;;;;;6054040;29;20029;-75
2023/11/01 14:08:08;;;;;;;5.45;0.75;;;19.40;47.70;;;;;;6054030;29;20057;-73
2023/11/01 14:11:10;;;;;;;0.30;0.30;;;19.30;48.00;;;;;;6054030;29;20021;-73
2023/11/01 14:14:12;;;;;;;7.18;0.82;;;19.30;48.20;;;;;;6053500;29;20068;-72
2023/11/01 14:17:15;;;;;;;2.38;0.70;;;19.20;48.20;;;;;;6054721;29;20100;-73
2023/11/01 14:20:16;;;;;;;1.42;0.52;;;19.10;48.40;;;;;;6045748;29;20042;-70
2023/11/01 14:23:17;;;;;;;3.80;0.60;;;19.00;49.00;;;;;;6030708;29;20033;-72
2023/11/01 14:26:18;;;;;;;2.30;0.60;;;18.80;49.80;;;;;;6029354;29;20037;-73
2023/11/01 14:29:19;;;;;;;1.05;0.50;;;18.60;50.70;;;;;;6044283;29;20559;-73
2023/11/01 14:32:20;;;;;;;4.57;0.55;;;18.50;51.80;;;;;;6043607;29;20033;-72
2023/11/01 14:35:21;;;;;;;5.38;0.50;;;18.30;52.50;;;;;;6050976;29;20028;-74
2023/11/01 14:38:22;;;;;;;1.30;0.52;;;18.20;52.60;;;;;;6052790;29;20161;-72
2023/11/01 14:41:23;;;;;;;0.93;0.52;;;18.00;53.30;;;;;;6051326;29;20526;-72
2023/11/01 14:44:24;;;;;;;3.15;0.88;;;17.80;54.00;;;;;;6051023;29;20096;-72
2023/11/01 14:47:25;;;;;;;1.63;0.52;;;17.70;54.40;;;;;;6052536;29;20422;-72
2023/11/01 14:50:27;;;;;;;5.68;0.95;;;17.60;54.80;;;;;;6051692;29;20112;-72
2023/11/01 14:53:28;;;;;;;2.72;0.22;;;17.60;55.00;;;;;;6052267;29;20051;-73
2023/11/01 14:56:29;;;;;;;2.80;0.82;;;17.50;55.40;;;;;;6052637;29;20041;-73
2023/11/01 14:59:30;;;;;;;1.27;0.52;;;17.60;55.60;;;;;;6052102;29;20036;-72
2023/11/01 15:02:31;;;;;;;1.65;0.95;;;17.40;55.90;;;;;;6050761;29;20045;-72
2023/11/01 15:05:32;;;;;;;3.47;0.93;;;17.40;56.10;;;;;;6052612;29;20104;-72
2023/11/01 15:08:33;;;;;;;3.53;0.80;;;17.30;57.20;;;;;;6050458;29;20036;-73
2023/11/01 15:11:34;;;;;;;3.65;0.90;;;17.20;58.40;;;;;;6051399;29;20041;-73
2023/11/01 15:14:35;;;;;;;3.67;1.35;;;17.10;58.60;;;;;;6051598;29;20800;-72
2023/11/01 15:17:36;;;;;;;2.38;0.85;;;17.00;58.70;;;;;;6051135;29;20059;-73
2023/11/01 15:20:38;;;;;;;2.60;0.75;;;16.90;58.90;;;;;;6049602;29;20043;-74
2023/11/01 15:23:39;;;;;;;2.42;0.90;;;16.90;59.40;;;;;;6051337;29;20368;-73
2023/11/01 15:26:40;;;;;;;3.30;1.50;;;16.90;59.30;;;;;;6050887;29;20033;-71
2023/11/01 15:29:42;;;;;;;3.83;1.17;;;17.00;59.70;;;;;;6050363;29;20040;-72
2023/11/01 15:32:43;;;;;;;2.22;0.90;;;17.00;59.20;;;;;;6050716;29;20104;-73
2023/11/01 15:35:44;;;;;;;2.35;1.25;;;17.00;59.40;;;;;;6050797;29;20066;-73
2023/11/01 15:38:45;;;;;;;3.50;1.08;;;17.10;59.40;;;;;;6048924;29;20041;-74
2023/11/01 15:41:46;;;;;;;7.07;2.47;;;17.10;59.40;;;;;;6035729;29;20090;-72
2023/11/01 15:44:47;;;;;;;2.97;1.13;;;17.20;59.40;;;;;;6050782;29;20033;-72
2023/11/01 15:47:47;;;;;;;3.80;1.20;;;17.10;59.80;;;;;;6051095;29;20550;-72